TUI6H EDDF-LGKO
Flight info
| Callsign | TUI6H |
|---|---|
| Flight time | N/A |
| Altitude | 37000 |
| Route | CINDY8S/18 CINDY Z74 LAMPU DCT NOMBO Y161 MAH DCT VAVOR DCT RADIZ DCT KUSIB DCT MEDUX UM867 KOGAT DCT ERANA DCT TSL DCT MES UN139 LURUS L995 KOPAR KOPAR1M |
| Aircraft | B38M/M-SDE1FGHILORVWXY/HB1 |
Departure
| Time | 2026-05-05 17:18 |
|---|---|
| Airport | Frankfurt Main Airport (EDDF) |
Arrival
| Time | N/A |
|---|---|
| Airport | Kos International Airport "Ippokratis" (LGKO) |
| Time | Latitude | Longitude | Altitude | Speed | Heading |
|---|---|---|---|---|---|
| 2026-05-05 16:22 | 50.04910 | 8.58867 | 365 ft | 0 kts | 160° |
| 2026-05-05 16:55 | 50.04919 | 8.58861 | 368 ft | 4 kts | 160° |
| 2026-05-05 16:56 | 50.04942 | 8.58848 | 364 ft | 2 kts | 160° |
| 2026-05-05 16:56 | 50.04960 | 8.58831 | 362 ft | 4 kts | 113° |
| 2026-05-05 16:56 | 50.04959 | 8.58798 | 362 ft | 4 kts | 70° |
| 2026-05-05 16:56 | 50.04952 | 8.58770 | 364 ft | 0 kts | 70° |
| 2026-05-05 17:00 | 50.04954 | 8.58778 | 362 ft | 3 kts | 70° |
| 2026-05-05 17:00 | 50.04973 | 8.58856 | 362 ft | 10 kts | 70° |
| 2026-05-05 17:00 | 50.05003 | 8.58985 | 362 ft | 14 kts | 69° |
| 2026-05-05 17:01 | 50.05037 | 8.59125 | 364 ft | 14 kts | 69° |
| 2026-05-05 17:01 | 50.05052 | 8.59236 | 363 ft | 9 kts | 105° |
| 2026-05-05 17:01 | 50.05017 | 8.59285 | 365 ft | 6 kts | 157° |
| 2026-05-05 17:01 | 50.04986 | 8.59304 | 369 ft | 4 kts | 160° |
| 2026-05-05 17:02 | 50.04953 | 8.59323 | 370 ft | 7 kts | 159° |
| 2026-05-05 17:02 | 50.04898 | 8.59362 | 372 ft | 9 kts | 143° |
| 2026-05-05 17:02 | 50.04864 | 8.59430 | 372 ft | 8 kts | 116° |
| 2026-05-05 17:02 | 50.04833 | 8.59494 | 372 ft | 7 kts | 139° |
| 2026-05-05 17:03 | 50.04792 | 8.59545 | 373 ft | 7 kts | 140° |
| 2026-05-05 17:03 | 50.04756 | 8.59582 | 375 ft | 5 kts | 155° |
| 2026-05-05 17:03 | 50.04714 | 8.59602 | 376 ft | 9 kts | 167° |
| 2026-05-05 17:03 | 50.04618 | 8.59619 | 377 ft | 18 kts | 178° |
| 2026-05-05 17:04 | 50.04481 | 8.59625 | 378 ft | 20 kts | 178° |
| 2026-05-05 17:04 | 50.04337 | 8.59633 | 378 ft | 21 kts | 178° |
| 2026-05-05 17:04 | 50.04189 | 8.59622 | 377 ft | 22 kts | 192° |
| 2026-05-05 17:04 | 50.04039 | 8.59538 | 377 ft | 23 kts | 206° |
| 2026-05-05 17:05 | 50.03911 | 8.59379 | 372 ft | 26 kts | 232° |
| 2026-05-05 17:05 | 50.03830 | 8.59115 | 372 ft | 27 kts | 250° |
| 2026-05-05 17:05 | 50.03763 | 8.58834 | 368 ft | 29 kts | 249° |
| 2026-05-05 17:05 | 50.03691 | 8.58531 | 367 ft | 30 kts | 249° |
| 2026-05-05 17:06 | 50.03617 | 8.58220 | 363 ft | 31 kts | 250° |
| 2026-05-05 17:06 | 50.03542 | 8.57907 | 362 ft | 29 kts | 250° |
| 2026-05-05 17:06 | 50.03481 | 8.57651 | 359 ft | 26 kts | 250° |
| 2026-05-05 17:06 | 50.03417 | 8.57385 | 363 ft | 27 kts | 250° |
| 2026-05-05 17:07 | 50.03351 | 8.57106 | 357 ft | 28 kts | 250° |
| 2026-05-05 17:07 | 50.03282 | 8.56818 | 361 ft | 29 kts | 250° |
| 2026-05-05 17:07 | 50.03209 | 8.56511 | 353 ft | 31 kts | 250° |
| 2026-05-05 17:07 | 50.03135 | 8.56197 | 350 ft | 31 kts | 250° |
| 2026-05-05 17:08 | 50.03057 | 8.55871 | 353 ft | 33 kts | 249° |
| 2026-05-05 17:08 | 50.02983 | 8.55562 | 351 ft | 25 kts | 250° |
| 2026-05-05 17:08 | 50.02921 | 8.55307 | 349 ft | 26 kts | 249° |
| 2026-05-05 17:08 | 50.02858 | 8.55043 | 355 ft | 27 kts | 249° |
| 2026-05-05 17:09 | 50.02791 | 8.54767 | 349 ft | 28 kts | 249° |
| 2026-05-05 17:09 | 50.02724 | 8.54483 | 352 ft | 28 kts | 250° |
| 2026-05-05 17:09 | 50.02672 | 8.54227 | 336 ft | 21 kts | 256° |
| 2026-05-05 17:09 | 50.02618 | 8.53997 | 337 ft | 24 kts | 249° |
| 2026-05-05 17:10 | 50.02559 | 8.53752 | 337 ft | 24 kts | 250° |
| 2026-05-05 17:10 | 50.02501 | 8.53507 | 339 ft | 24 kts | 249° |
| 2026-05-05 17:10 | 50.02444 | 8.53265 | 338 ft | 22 kts | 251° |
| 2026-05-05 17:10 | 50.02397 | 8.53070 | 334 ft | 20 kts | 249° |
| 2026-05-05 17:11 | 50.02353 | 8.52885 | 333 ft | 11 kts | 249° |
| 2026-05-05 17:11 | 50.02328 | 8.52790 | 337 ft | 10 kts | 249° |
| 2026-05-05 17:11 | 50.02320 | 8.52754 | 334 ft | 0 kts | 249° |
| 2026-05-05 17:16 | 50.02314 | 8.52730 | 336 ft | 6 kts | 249° |
| 2026-05-05 17:16 | 50.02282 | 8.52627 | 335 ft | 14 kts | 226° |
| 2026-05-05 17:16 | 50.02238 | 8.52606 | 337 ft | 0 kts | 178° |
| 2026-05-05 17:17 | 50.02188 | 8.52608 | 335 ft | 25 kts | 179° |
| 2026-05-05 17:17 | 50.01811 | 8.52611 | 337 ft | 90 kts | 180° |
| 2026-05-05 17:17 | 50.00932 | 8.52616 | 334 ft | 160 kts | 179° |
| 2026-05-05 17:18 | 49.99690 | 8.52652 | 695 ft | 190 kts | 181° |
| 2026-05-05 17:18 | 49.98331 | 8.52676 | 1580 ft | 203 kts | 181° |
| 2026-05-05 17:18 | 49.96880 | 8.52894 | 2400 ft | 216 kts | 164° |
| 2026-05-05 17:18 | 49.95668 | 8.54387 | 2979 ft | 235 kts | 121° |
| 2026-05-05 17:19 | 49.94962 | 8.56725 | 3201 ft | 240 kts | 117° |
| 2026-05-05 17:19 | 49.94236 | 8.59050 | 3255 ft | 244 kts | 112° |
| 2026-05-05 17:19 | 49.93975 | 8.61718 | 3335 ft | 260 kts | 92° |
| 2026-05-05 17:19 | 49.93896 | 8.64576 | 3404 ft | 268 kts | 94° |
| 2026-05-05 17:20 | 49.93725 | 8.67470 | 3608 ft | 271 kts | 108° |
| 2026-05-05 17:20 | 49.92835 | 8.69970 | 4548 ft | 265 kts | 135° |
| 2026-05-05 17:20 | 49.91439 | 8.71820 | 5561 ft | 265 kts | 144° |
| 2026-05-05 17:20 | 49.89966 | 8.73558 | 6536 ft | 267 kts | 145° |
| 2026-05-05 17:21 | 49.88533 | 8.75436 | 7412 ft | 274 kts | 130° |
| 2026-05-05 17:21 | 49.87553 | 8.77986 | 8309 ft | 279 kts | 121° |
| 2026-05-05 17:21 | 49.86595 | 8.80629 | 9162 ft | 283 kts | 122° |
| 2026-05-05 17:22 | 49.84612 | 8.86080 | 10451 ft | 306 kts | 122° |
| 2026-05-05 17:22 | 49.83540 | 8.89033 | 10871 ft | 322 kts | 122° |
| 2026-05-05 17:22 | 49.82324 | 8.92030 | 11383 ft | 334 kts | 126° |
| 2026-05-05 17:22 | 49.81055 | 8.95084 | 12047 ft | 340 kts | 125° |
| 2026-05-05 17:23 | 49.79774 | 8.98182 | 12801 ft | 344 kts | 125° |
| 2026-05-05 17:23 | 49.78475 | 9.01332 | 13506 ft | 349 kts | 125° |
| 2026-05-05 17:23 | 49.77163 | 9.04515 | 14163 ft | 352 kts | 125° |
| 2026-05-05 17:23 | 49.75860 | 9.07675 | 14845 ft | 353 kts | 125° |
| 2026-05-05 17:24 | 49.74534 | 9.10885 | 15516 ft | 356 kts | 125° |
| 2026-05-05 17:24 | 49.73070 | 9.13967 | 16146 ft | 355 kts | 137° |
| 2026-05-05 17:24 | 49.71261 | 9.16542 | 16757 ft | 356 kts | 140° |
| 2026-05-05 17:24 | 49.69427 | 9.19151 | 17351 ft | 359 kts | 139° |